sensor_id;sensor_type;location;lat;lon;timestamp;P1;durP1;ratioP1;P2;durP2;ratioP2
32393;SDS011;18853;45.426;9.206;2023-07-31T00:00:54;10.40;;;6.40;;
32393;SDS011;18853;45.426;9.206;2023-07-31T00:03:20;8.02;;;6.57;;
32393;SDS011;18853;45.426;9.206;2023-07-31T00:05:45;11.02;;;7.43;;
32393;SDS011;18853;45.426;9.206;2023-07-31T00:08:11;10.20;;;7.00;;
32393;SDS011;18853;45.426;9.206;2023-07-31T00:10:36;8.35;;;7.50;;
32393;SDS011;18853;45.426;9.206;2023-07-31T00:13:02;8.40;;;7.25;;
32393;SDS011;18853;45.426;9.206;2023-07-31T00:15:28;11.60;;;7.78;;
32393;SDS011;18853;45.426;9.206;2023-07-31T00:17:53;9.27;;;8.10;;
32393;SDS011;18853;45.426;9.206;2023-07-31T00:20:19;10.32;;;7.78;;
32393;SDS011;18853;45.426;9.206;2023-07-31T00:22:46;9.65;;;8.55;;
32393;SDS011;18853;45.426;9.206;2023-07-31T00:25:11;10.57;;;9.18;;
32393;SDS011;18853;45.426;9.206;2023-07-31T00:27:37;12.40;;;10.80;;
32393;SDS011;18853;45.426;9.206;2023-07-31T00:30:03;14.90;;;12.27;;
32393;SDS011;18853;45.426;9.206;2023-07-31T00:32:29;13.82;;;12.45;;
32393;SDS011;18853;45.426;9.206;2023-07-31T00:34:55;14.43;;;12.93;;
32393;SDS011;18853;45.426;9.206;2023-07-31T00:37:20;16.20;;;13.38;;
32393;SDS011;18853;45.426;9.206;2023-07-31T00:39:46;16.83;;;13.23;;
32393;SDS011;18853;45.426;9.206;2023-07-31T00:42:12;14.63;;;13.10;;
32393;SDS011;18853;45.426;9.206;2023-07-31T00:44:37;14.68;;;13.13;;
32393;SDS011;18853;45.426;9.206;2023-07-31T00:47:03;16.05;;;11.65;;
32393;SDS011;18853;45.426;9.206;2023-07-31T00:49:29;13.18;;;11.85;;
32393;SDS011;18853;45.426;9.206;2023-07-31T00:51:54;15.25;;;12.15;;
32393;SDS011;18853;45.426;9.206;2023-07-31T00:54:22;13.45;;;12.07;;
32393;SDS011;18853;45.426;9.206;2023-07-31T00:56:48;13.93;;;12.52;;
32393;SDS011;18853;45.426;9.206;2023-07-31T00:59:17;14.57;;;13.00;;
32393;SDS011;18853;45.426;9.206;2023-07-31T01:01:43;13.77;;;12.27;;
32393;SDS011;18853;45.426;9.206;2023-07-31T01:04:10;16.45;;;14.70;;
32393;SDS011;18853;45.426;9.206;2023-07-31T01:06:39;16.05;;;14.20;;
32393;SDS011;18853;45.426;9.206;2023-07-31T01:12:14;16.48;;;13.00;;
32393;SDS011;18853;45.426;9.206;2023-07-31T01:17:37;15.77;;;14.15;;
32393;SDS011;18853;45.426;9.206;2023-07-31T01:20:04;13.98;;;12.57;;
32393;SDS011;18853;45.426;9.206;2023-07-31T01:28:13;13.90;;;12.50;;
32393;SDS011;18853;45.426;9.206;2023-07-31T01:30:44;14.25;;;12.82;;
32393;SDS011;18853;45.426;9.206;2023-07-31T01:33:13;13.35;;;11.43;;
32393;SDS011;18853;45.426;9.206;2023-07-31T01:35:43;13.90;;;11.68;;
32393;SDS011;18853;45.426;9.206;2023-07-31T01:38:11;12.40;;;11.10;;
32393;SDS011;18853;45.426;9.206;2023-07-31T01:40:40;13.82;;;11.30;;
32393;SDS011;18853;45.426;9.206;2023-07-31T01:43:07;14.63;;;10.73;;
32393;SDS011;18853;45.426;9.206;2023-07-31T01:45:32;12.85;;;11.23;;
32393;SDS011;18853;45.426;9.206;2023-07-31T01:47:58;12.73;;;10.43;;
32393;SDS011;18853;45.426;9.206;2023-07-31T01:50:24;11.30;;;9.40;;
32393;SDS011;18853;45.426;9.206;2023-07-31T01:52:49;11.35;;;10.10;;
32393;SDS011;18853;45.426;9.206;2023-07-31T01:55:15;11.20;;;9.70;;
32393;SDS011;18853;45.426;9.206;2023-07-31T01:57:40;10.63;;;9.52;;
32393;SDS011;18853;45.426;9.206;2023-07-31T02:00:06;10.35;;;9.07;;
32393;SDS011;18853;45.426;9.206;2023-07-31T02:02:32;10.90;;;8.77;;
32393;SDS011;18853;45.426;9.206;2023-07-31T02:04:59;10.65;;;9.25;;
32393;SDS011;18853;45.426;9.206;2023-07-31T02:07:25;13.00;;;8.95;;
32393;SDS011;18853;45.426;9.206;2023-07-31T02:09:51;9.98;;;8.93;;
32393;SDS011;18853;45.426;9.206;2023-07-31T02:12:17;11.15;;;9.25;;
32393;SDS011;18853;45.426;9.206;2023-07-31T02:14:43;9.68;;;7.78;;
32393;SDS011;18853;45.426;9.206;2023-07-31T02:17:09;9.80;;;7.90;;
32393;SDS011;18853;45.426;9.206;2023-07-31T02:19:34;11.05;;;7.65;;
32393;SDS011;18853;45.426;9.206;2023-07-31T02:22:00;9.88;;;8.35;;
32393;SDS011;18853;45.426;9.206;2023-07-31T02:24:26;11.70;;;7.45;;
32393;SDS011;18853;45.426;9.206;2023-07-31T02:26:51;12.40;;;7.72;;
32393;SDS011;18853;45.426;9.206;2023-07-31T02:29:17;10.00;;;7.07;;
32393;SDS011;18853;45.426;9.206;2023-07-31T02:31:42;11.48;;;7.72;;
32393;SDS011;18853;45.426;9.206;2023-07-31T02:34:08;7.95;;;6.43;;
32393;SDS011;18853;45.426;9.206;2023-07-31T02:36:34;8.13;;;5.95;;
32393;SDS011;18853;45.426;9.206;2023-07-31T02:38:59;9.20;;;6.43;;
32393;SDS011;18853;45.426;9.206;2023-07-31T02:41:25;6.35;;;5.68;;
32393;SDS011;18853;45.426;9.206;2023-07-31T02:43:51;7.32;;;5.75;;
32393;SDS011;18853;45.426;9.206;2023-07-31T02:46:17;8.68;;;7.00;;
32393;SDS011;18853;45.426;9.206;2023-07-31T02:48:42;9.43;;;6.05;;
32393;SDS011;18853;45.426;9.206;2023-07-31T02:51:08;7.47;;;6.60;;
32393;SDS011;18853;45.426;9.206;2023-07-31T02:53:34;7.63;;;6.25;;
32393;SDS011;18853;45.426;9.206;2023-07-31T02:55:59;6.00;;;5.32;;
32393;SDS011;18853;45.426;9.206;2023-07-31T02:58:25;7.82;;;5.95;;
32393;SDS011;18853;45.426;9.206;2023-07-31T03:00:50;8.55;;;6.07;;
32393;SDS011;18853;45.426;9.206;2023-07-31T03:03:16;7.78;;;5.25;;
32393;SDS011;18853;45.426;9.206;2023-07-31T03:05:42;10.32;;;6.28;;
32393;SDS011;18853;45.426;9.206;2023-07-31T03:08:07;6.18;;;5.07;;
32393;SDS011;18853;45.426;9.206;2023-07-31T03:10:33;7.45;;;5.72;;
32393;SDS011;18853;45.426;9.206;2023-07-31T03:12:59;8.02;;;5.85;;
32393;SDS011;18853;45.426;9.206;2023-07-31T03:15:25;8.30;;;6.07;;
32393;SDS011;18853;45.426;9.206;2023-07-31T03:17:51;7.45;;;5.90;;
32393;SDS011;18853;45.426;9.206;2023-07-31T03:20:17;9.02;;;5.55;;
32393;SDS011;18853;45.426;9.206;2023-07-31T03:22:42;6.70;;;5.72;;
32393;SDS011;18853;45.426;9.206;2023-07-31T03:25:08;9.02;;;6.15;;
32393;SDS011;18853;45.426;9.206;2023-07-31T03:27:35;8.02;;;5.95;;
32393;SDS011;18853;45.426;9.206;2023-07-31T03:30:01;6.30;;;5.28;;
32393;SDS011;18853;45.426;9.206;2023-07-31T03:32:28;8.93;;;5.60;;
32393;SDS011;18853;45.426;9.206;2023-07-31T03:34:53;7.80;;;5.60;;
32393;SDS011;18853;45.426;9.206;2023-07-31T03:37:19;6.45;;;5.65;;
32393;SDS011;18853;45.426;9.206;2023-07-31T03:39:45;7.22;;;5.68;;
32393;SDS011;18853;45.426;9.206;2023-07-31T03:42:10;6.25;;;5.22;;
32393;SDS011;18853;45.426;9.206;2023-07-31T03:44:36;9.60;;;5.22;;
32393;SDS011;18853;45.426;9.206;2023-07-31T03:47:02;7.32;;;5.57;;
32393;SDS011;18853;45.426;9.206;2023-07-31T03:49:27;6.32;;;4.97;;
32393;SDS011;18853;45.426;9.206;2023-07-31T03:51:53;6.72;;;5.55;;
32393;SDS011;18853;45.426;9.206;2023-07-31T03:54:19;6.88;;;5.47;;
32393;SDS011;18853;45.426;9.206;2023-07-31T03:56:44;5.35;;;4.85;;
32393;SDS011;18853;45.426;9.206;2023-07-31T03:59:10;6.38;;;5.10;;
32393;SDS011;18853;45.426;9.206;2023-07-31T04:01:36;7.53;;;5.57;;
32393;SDS011;18853;45.426;9.206;2023-07-31T04:04:01;6.82;;;5.07;;
32393;SDS011;18853;45.426;9.206;2023-07-31T04:06:27;7.35;;;5.18;;
32393;SDS011;18853;45.426;9.206;2023-07-31T04:08:53;5.93;;;4.80;;
32393;SDS011;18853;45.426;9.206;2023-07-31T04:11:19;8.85;;;5.13;;
32393;SDS011;18853;45.426;9.206;2023-07-31T04:13:45;5.93;;;4.65;;
32393;SDS011;18853;45.426;9.206;2023-07-31T04:16:11;8.68;;;5.75;;
32393;SDS011;18853;45.426;9.206;2023-07-31T04:18:37;6.00;;;5.10;;
32393;SDS011;18853;45.426;9.206;2023-07-31T04:21:03;7.25;;;4.97;;
32393;SDS011;18853;45.426;9.206;2023-07-31T04:23:28;7.22;;;5.10;;
32393;SDS011;18853;45.426;9.206;2023-07-31T04:25:54;8.65;;;4.95;;
32393;SDS011;18853;45.426;9.206;2023-07-31T04:28:20;6.00;;;5.10;;
32393;SDS011;18853;45.426;9.206;2023-07-31T04:30:46;7.25;;;5.10;;
32393;SDS011;18853;45.426;9.206;2023-07-31T04:33:12;6.00;;;5.25;;
32393;SDS011;18853;45.426;9.206;2023-07-31T04:35:38;6.78;;;4.75;;
32393;SDS011;18853;45.426;9.206;2023-07-31T04:38:03;9.10;;;5.22;;
32393;SDS011;18853;45.426;9.206;2023-07-31T04:40:29;8.10;;;5.10;;
32393;SDS011;18853;45.426;9.206;2023-07-31T04:42:54;6.20;;;5.25;;
32393;SDS011;18853;45.426;9.206;2023-07-31T04:45:20;9.65;;;5.10;;
32393;SDS011;18853;45.426;9.206;2023-07-31T04:47:46;7.93;;;5.13;;
32393;SDS011;18853;45.426;9.206;2023-07-31T04:50:11;6.85;;;4.97;;
32393;SDS011;18853;45.426;9.206;2023-07-31T04:52:37;7.38;;;4.95;;
32393;SDS011;18853;45.426;9.206;2023-07-31T04:55:03;7.18;;;5.60;;
32393;SDS011;18853;45.426;9.206;2023-07-31T04:57:29;8.52;;;5.10;;
32393;SDS011;18853;45.426;9.206;2023-07-31T04:59:54;7.80;;;4.50;;
32393;SDS011;18853;45.426;9.206;2023-07-31T05:02:20;7.05;;;5.18;;
32393;SDS011;18853;45.426;9.206;2023-07-31T05:04:46;6.25;;;4.85;;
32393;SDS011;18853;45.426;9.206;2023-07-31T05:07:11;6.28;;;4.40;;
32393;SDS011;18853;45.426;9.206;2023-07-31T05:09:37;7.68;;;5.10;;
32393;SDS011;18853;45.426;9.206;2023-07-31T05:12:04;7.38;;;4.70;;
32393;SDS011;18853;45.426;9.206;2023-07-31T05:14:30;7.10;;;5.00;;
32393;SDS011;18853;45.426;9.206;2023-07-31T05:16:56;6.90;;;4.97;;
32393;SDS011;18853;45.426;9.206;2023-07-31T05:19:22;6.75;;;5.00;;
32393;SDS011;18853;45.426;9.206;2023-07-31T05:21:47;7.80;;;6.75;;
32393;SDS011;18853;45.426;9.206;2023-07-31T05:24:13;7.38;;;6.07;;
32393;SDS011;18853;45.426;9.206;2023-07-31T05:26:39;6.32;;;4.90;;
32393;SDS011;18853;45.426;9.206;2023-07-31T05:29:04;7.50;;;5.93;;
32393;SDS011;18853;45.426;9.206;2023-07-31T05:31:30;7.47;;;5.47;;
32393;SDS011;18853;45.426;9.206;2023-07-31T05:33:57;6.05;;;5.22;;
32393;SDS011;18853;45.426;9.206;2023-07-31T05:36:23;9.05;;;5.78;;
32393;SDS011;18853;45.426;9.206;2023-07-31T05:38:48;7.22;;;5.28;;
32393;SDS011;18853;45.426;9.206;2023-07-31T05:41:14;7.15;;;5.38;;
32393;SDS011;18853;45.426;9.206;2023-07-31T05:43:41;6.30;;;5.05;;
32393;SDS011;18853;45.426;9.206;2023-07-31T05:46:08;6.55;;;5.10;;
32393;SDS011;18853;45.426;9.206;2023-07-31T05:48:34;8.10;;;5.72;;
32393;SDS011;18853;45.426;9.206;2023-07-31T05:51:00;8.07;;;5.82;;
32393;SDS011;18853;45.426;9.206;2023-07-31T05:53:26;6.97;;;5.82;;
32393;SDS011;18853;45.426;9.206;2023-07-31T05:55:51;8.55;;;5.28;;
32393;SDS011;18853;45.426;9.206;2023-07-31T05:58:17;7.72;;;5.35;;
32393;SDS011;18853;45.426;9.206;2023-07-31T06:00:42;8.57;;;4.95;;
32393;SDS011;18853;45.426;9.206;2023-07-31T06:03:08;6.57;;;4.93;;
32393;SDS011;18853;45.426;9.206;2023-07-31T06:05:34;6.75;;;4.85;;
32393;SDS011;18853;45.426;9.206;2023-07-31T06:07:59;7.07;;;4.78;;
32393;SDS011;18853;45.426;9.206;2023-07-31T06:10:26;8.50;;;4.47;;
32393;SDS011;18853;45.426;9.206;2023-07-31T06:12:51;6.63;;;5.00;;
32393;SDS011;18853;45.426;9.206;2023-07-31T06:15:17;6.65;;;4.15;;
32393;SDS011;18853;45.426;9.206;2023-07-31T06:17:44;6.10;;;4.47;;
32393;SDS011;18853;45.426;9.206;2023-07-31T06:20:10;5.25;;;3.60;;
32393;SDS011;18853;45.426;9.206;2023-07-31T06:22:36;6.78;;;3.72;;
32393;SDS011;18853;45.426;9.206;2023-07-31T06:25:01;4.95;;;3.88;;
32393;SDS011;18853;45.426;9.206;2023-07-31T06:27:27;5.55;;;4.10;;
32393;SDS011;18853;45.426;9.206;2023-07-31T06:29:53;5.05;;;3.80;;
32393;SDS011;18853;45.426;9.206;2023-07-31T06:32:19;5.57;;;3.88;;
32393;SDS011;18853;45.426;9.206;2023-07-31T06:34:45;5.78;;;3.97;;
32393;SDS011;18853;45.426;9.206;2023-07-31T06:37:10;5.53;;;4.07;;
32393;SDS011;18853;45.426;9.206;2023-07-31T06:39:36;4.85;;;3.70;;
32393;SDS011;18853;45.426;9.206;2023-07-31T06:42:02;4.90;;;3.63;;
32393;SDS011;18853;45.426;9.206;2023-07-31T06:44:28;4.55;;;3.50;;
32393;SDS011;18853;45.426;9.206;2023-07-31T06:46:54;6.38;;;3.60;;
32393;SDS011;18853;45.426;9.206;2023-07-31T06:49:19;4.22;;;3.33;;
32393;SDS011;18853;45.426;9.206;2023-07-31T06:51:45;3.58;;;3.17;;
32393;SDS011;18853;45.426;9.206;2023-07-31T06:54:11;4.95;;;3.40;;
32393;SDS011;18853;45.426;9.206;2023-07-31T06:56:36;7.50;;;4.78;;
32393;SDS011;18853;45.426;9.206;2023-07-31T06:59:03;9.27;;;7.60;;
32393;SDS011;18853;45.426;9.206;2023-07-31T07:01:28;7.95;;;6.72;;
32393;SDS011;18853;45.426;9.206;2023-07-31T07:03:54;6.05;;;4.95;;
32393;SDS011;18853;45.426;9.206;2023-07-31T07:06:20;6.70;;;4.13;;
32393;SDS011;18853;45.426;9.206;2023-07-31T07:08:47;5.93;;;3.45;;
32393;SDS011;18853;45.426;9.206;2023-07-31T07:11:14;6.32;;;3.40;;
32393;SDS011;18853;45.426;9.206;2023-07-31T07:13:39;4.45;;;3.30;;
32393;SDS011;18853;45.426;9.206;2023-07-31T07:16:05;6.30;;;3.38;;
32393;SDS011;18853;45.426;9.206;2023-07-31T07:18:31;4.63;;;3.28;;
32393;SDS011;18853;45.426;9.206;2023-07-31T07:20:57;4.88;;;3.17;;
32393;SDS011;18853;45.426;9.206;2023-07-31T07:23:23;4.25;;;2.80;;
32393;SDS011;18853;45.426;9.206;2023-07-31T07:25:49;5.47;;;2.55;;
32393;SDS011;18853;45.426;9.206;2023-07-31T07:28:16;4.68;;;2.70;;
32393;SDS011;18853;45.426;9.206;2023-07-31T07:30:42;4.65;;;2.67;;
32393;SDS011;18853;45.426;9.206;2023-07-31T07:33:07;3.63;;;3.00;;
32393;SDS011;18853;45.426;9.206;2023-07-31T07:35:33;4.53;;;2.50;;
32393;SDS011;18853;45.426;9.206;2023-07-31T07:38:00;5.82;;;3.10;;
32393;SDS011;18853;45.426;9.206;2023-07-31T07:40:26;7.07;;;3.15;;
32393;SDS011;18853;45.426;9.206;2023-07-31T07:42:52;5.88;;;3.13;;
32393;SDS011;18853;45.426;9.206;2023-07-31T07:45:17;4.22;;;2.97;;
32393;SDS011;18853;45.426;9.206;2023-07-31T07:47:43;5.18;;;2.78;;
32393;SDS011;18853;45.426;9.206;2023-07-31T07:50:09;5.43;;;2.55;;
32393;SDS011;18853;45.426;9.206;2023-07-31T07:52:35;5.22;;;2.75;;
32393;SDS011;18853;45.426;9.206;2023-07-31T07:55:00;8.75;;;2.83;;
32393;SDS011;18853;45.426;9.206;2023-07-31T07:57:26;4.53;;;2.72;;
32393;SDS011;18853;45.426;9.206;2023-07-31T07:59:52;6.28;;;3.05;;
32393;SDS011;18853;45.426;9.206;2023-07-31T08:02:18;3.90;;;2.45;;
32393;SDS011;18853;45.426;9.206;2023-07-31T08:04:43;3.50;;;2.30;;
32393;SDS011;18853;45.426;9.206;2023-07-31T08:07:12;5.53;;;2.60;;
32393;SDS011;18853;45.426;9.206;2023-07-31T08:09:38;6.03;;;2.78;;
32393;SDS011;18853;45.426;9.206;2023-07-31T08:12:04;5.95;;;2.78;;
32393;SDS011;18853;45.426;9.206;2023-07-31T08:14:30;7.78;;;3.72;;
32393;SDS011;18853;45.426;9.206;2023-07-31T08:16:56;6.32;;;4.25;;
32393;SDS011;18853;45.426;9.206;2023-07-31T08:19:22;7.70;;;3.47;;
32393;SDS011;18853;45.426;9.206;2023-07-31T08:21:47;4.90;;;3.25;;
32393;SDS011;18853;45.426;9.206;2023-07-31T08:24:13;6.22;;;2.90;;
32393;SDS011;18853;45.426;9.206;2023-07-31T08:26:39;4.72;;;2.67;;
32393;SDS011;18853;45.426;9.206;2023-07-31T08:29:05;4.05;;;2.70;;
32393;SDS011;18853;45.426;9.206;2023-07-31T08:31:31;4.45;;;3.30;;
32393;SDS011;18853;45.426;9.206;2023-07-31T08:33:56;6.10;;;4.07;;
32393;SDS011;18853;45.426;9.206;2023-07-31T08:36:22;4.43;;;3.20;;
32393;SDS011;18853;45.426;9.206;2023-07-31T08:38:48;5.90;;;4.20;;
32393;SDS011;18853;45.426;9.206;2023-07-31T08:41:15;6.80;;;3.90;;
32393;SDS011;18853;45.426;9.206;2023-07-31T08:43:42;4.32;;;3.35;;
32393;SDS011;18853;45.426;9.206;2023-07-31T08:46:10;5.50;;;4.00;;
32393;SDS011;18853;45.426;9.206;2023-07-31T08:48:37;5.38;;;3.90;;
32393;SDS011;18853;45.426;9.206;2023-07-31T08:51:03;5.05;;;3.50;;
32393;SDS011;18853;45.426;9.206;2023-07-31T08:53:29;4.97;;;4.45;;
32393;SDS011;18853;45.426;9.206;2023-07-31T08:55:55;5.85;;;3.80;;
32393;SDS011;18853;45.426;9.206;2023-07-31T08:58:23;5.95;;;5.35;;
32393;SDS011;18853;45.426;9.206;2023-07-31T09:00:50;6.68;;;4.85;;
32393;SDS011;18853;45.426;9.206;2023-07-31T09:03:18;6.85;;;4.80;;
32393;SDS011;18853;45.426;9.206;2023-07-31T09:05:45;6.22;;;3.72;;
32393;SDS011;18853;45.426;9.206;2023-07-31T09:08:12;5.82;;;3.83;;
32393;SDS011;18853;45.426;9.206;2023-07-31T09:10:42;8.43;;;4.90;;
32393;SDS011;18853;45.426;9.206;2023-07-31T09:13:10;9.02;;;6.43;;
32393;SDS011;18853;45.426;9.206;2023-07-31T09:15:37;8.23;;;7.43;;
32393;SDS011;18853;45.426;9.206;2023-07-31T09:18:04;7.75;;;6.93;;
32393;SDS011;18853;45.426;9.206;2023-07-31T09:20:30;8.57;;;6.30;;
32393;SDS011;18853;45.426;9.206;2023-07-31T09:23:04;8.00;;;7.20;;
32393;SDS011;18853;45.426;9.206;2023-07-31T09:25:34;9.73;;;8.18;;
32393;SDS011;18853;45.426;9.206;2023-07-31T09:28:01;6.43;;;4.78;;
32393;SDS011;18853;45.426;9.206;2023-07-31T09:30:53;6.95;;;4.97;;
32393;SDS011;18853;45.426;9.206;2023-07-31T09:33:19;8.10;;;7.05;;
32393;SDS011;18853;45.426;9.206;2023-07-31T09:35:44;7.75;;;5.97;;
32393;SDS011;18853;45.426;9.206;2023-07-31T09:38:13;8.70;;;7.35;;
32393;SDS011;18853;45.426;9.206;2023-07-31T09:40:40;10.38;;;8.00;;
32393;SDS011;18853;45.426;9.206;2023-07-31T09:43:09;8.77;;;4.68;;
32393;SDS011;18853;45.426;9.206;2023-07-31T09:45:39;9.70;;;7.65;;
32393;SDS011;18853;45.426;9.206;2023-07-31T09:48:07;7.75;;;5.78;;
32393;SDS011;18853;45.426;9.206;2023-07-31T09:50:34;8.45;;;7.55;;
32393;SDS011;18853;45.426;9.206;2023-07-31T09:53:06;7.03;;;5.07;;
32393;SDS011;18853;45.426;9.206;2023-07-31T09:55:33;10.55;;;8.55;;
32393;SDS011;18853;45.426;9.206;2023-07-31T09:57:59;8.93;;;7.22;;
32393;SDS011;18853;45.426;9.206;2023-07-31T10:00:37;8.20;;;6.45;;
32393;SDS011;18853;45.426;9.206;2023-07-31T10:03:09;6.65;;;5.80;;
32393;SDS011;18853;45.426;9.206;2023-07-31T10:05:53;7.30;;;4.85;;
32393;SDS011;18853;45.426;9.206;2023-07-31T10:08:23;6.65;;;4.82;;
32393;SDS011;18853;45.426;9.206;2023-07-31T10:10:54;6.53;;;5.30;;
32393;SDS011;18853;45.426;9.206;2023-07-31T10:13:23;7.32;;;5.20;;
32393;SDS011;18853;45.426;9.206;2023-07-31T10:15:49;5.60;;;4.00;;
32393;SDS011;18853;45.426;9.206;2023-07-31T10:18:16;7.03;;;5.93;;
32393;SDS011;18853;45.426;9.206;2023-07-31T10:20:43;7.15;;;6.30;;
32393;SDS011;18853;45.426;9.206;2023-07-31T10:23:10;6.07;;;3.60;;
32393;SDS011;18853;45.426;9.206;2023-07-31T10:25:36;9.50;;;7.82;;
32393;SDS011;18853;45.426;9.206;2023-07-31T10:28:03;5.65;;;4.75;;
32393;SDS011;18853;45.426;9.206;2023-07-31T10:30:29;4.68;;;3.60;;
32393;SDS011;18853;45.426;9.206;2023-07-31T10:32:57;6.25;;;4.20;;
32393;SDS011;18853;45.426;9.206;2023-07-31T10:35:24;6.05;;;4.43;;
32393;SDS011;18853;45.426;9.206;2023-07-31T10:37:50;6.63;;;5.78;;
32393;SDS011;18853;45.426;9.206;2023-07-31T10:40:18;9.43;;;6.35;;
32393;SDS011;18853;45.426;9.206;2023-07-31T10:42:48;7.55;;;4.90;;
32393;SDS011;18853;45.426;9.206;2023-07-31T10:45:31;8.70;;;7.05;;
32393;SDS011;18853;45.426;9.206;2023-07-31T10:50:27;7.00;;;5.95;;
32393;SDS011;18853;45.426;9.206;2023-07-31T10:52:55;7.40;;;6.32;;
32393;SDS011;18853;45.426;9.206;2023-07-31T10:55:27;8.65;;;6.53;;
32393;SDS011;18853;45.426;9.206;2023-07-31T10:57:54;5.97;;;4.03;;
32393;SDS011;18853;45.426;9.206;2023-07-31T11:00:27;7.85;;;5.32;;
32393;SDS011;18853;45.426;9.206;2023-07-31T11:02:57;7.00;;;4.55;;
32393;SDS011;18853;45.426;9.206;2023-07-31T11:10:37;5.53;;;3.88;;
32393;SDS011;18853;45.426;9.206;2023-07-31T11:13:06;5.53;;;4.05;;
32393;SDS011;18853;45.426;9.206;2023-07-31T11:15:31;6.60;;;3.95;;
32393;SDS011;18853;45.426;9.206;2023-07-31T11:17:57;6.45;;;4.72;;
32393;SDS011;18853;45.426;9.206;2023-07-31T11:20:24;7.50;;;4.47;;
32393;SDS011;18853;45.426;9.206;2023-07-31T11:22:50;6.25;;;4.70;;
32393;SDS011;18853;45.426;9.206;2023-07-31T11:25:16;6.93;;;5.43;;
32393;SDS011;18853;45.426;9.206;2023-07-31T11:27:42;9.25;;;6.22;;
32393;SDS011;18853;45.426;9.206;2023-07-31T11:30:09;7.35;;;5.55;;
32393;SDS011;18853;45.426;9.206;2023-07-31T11:32:38;7.65;;;6.30;;
32393;SDS011;18853;45.426;9.206;2023-07-31T11:35:04;5.80;;;4.65;;
32393;SDS011;18853;45.426;9.206;2023-07-31T11:37:43;5.45;;;3.40;;
32393;SDS011;18853;45.426;9.206;2023-07-31T11:40:21;6.32;;;4.22;;
32393;SDS011;18853;45.426;9.206;2023-07-31T11:42:47;4.82;;;3.75;;
32393;SDS011;18853;45.426;9.206;2023-07-31T11:45:13;7.32;;;4.00;;
32393;SDS011;18853;45.426;9.206;2023-07-31T11:47:38;5.38;;;4.68;;
32393;SDS011;18853;45.426;9.206;2023-07-31T11:50:05;4.28;;;3.72;;
32393;SDS011;18853;45.426;9.206;2023-07-31T11:52:40;5.93;;;3.78;;
32393;SDS011;18853;45.426;9.206;2023-07-31T11:55:08;5.05;;;3.95;;
32393;SDS011;18853;45.426;9.206;2023-07-31T11:57:37;9.27;;;4.65;;
32393;SDS011;18853;45.426;9.206;2023-07-31T12:00:06;6.00;;;4.82;;
32393;SDS011;18853;45.426;9.206;2023-07-31T12:02:34;5.75;;;4.80;;
32393;SDS011;18853;45.426;9.206;2023-07-31T12:05:01;5.00;;;4.45;;
32393;SDS011;18853;45.426;9.206;2023-07-31T12:07:27;4.75;;;3.58;;
32393;SDS011;18853;45.426;9.206;2023-07-31T12:09:55;5.55;;;3.63;;
32393;SDS011;18853;45.426;9.206;2023-07-31T12:12:23;8.98;;;6.40;;
32393;SDS011;18853;45.426;9.206;2023-07-31T12:14:50;7.07;;;5.82;;
32393;SDS011;18853;45.426;9.206;2023-07-31T12:17:16;5.45;;;4.13;;
32393;SDS011;18853;45.426;9.206;2023-07-31T12:19:45;5.35;;;4.13;;
32393;SDS011;18853;45.426;9.206;2023-07-31T12:22:12;4.65;;;3.80;;
32393;SDS011;18853;45.426;9.206;2023-07-31T12:24:44;5.47;;;3.95;;
32393;SDS011;18853;45.426;9.206;2023-07-31T12:27:10;4.80;;;3.15;;
32393;SDS011;18853;45.426;9.206;2023-07-31T12:29:37;4.65;;;3.38;;
32393;SDS011;18853;45.426;9.206;2023-07-31T12:32:04;5.40;;;4.20;;
32393;SDS011;18853;45.426;9.206;2023-07-31T12:34:43;5.50;;;3.85;;
32393;SDS011;18853;45.426;9.206;2023-07-31T12:37:08;4.57;;;3.58;;
32393;SDS011;18853;45.426;9.206;2023-07-31T12:39:34;4.50;;;3.55;;
32393;SDS011;18853;45.426;9.206;2023-07-31T12:42:00;7.88;;;3.95;;
32393;SDS011;18853;45.426;9.206;2023-07-31T12:44:25;7.20;;;4.00;;
32393;SDS011;18853;45.426;9.206;2023-07-31T12:46:51;4.25;;;3.17;;
32393;SDS011;18853;45.426;9.206;2023-07-31T12:49:17;5.57;;;3.55;;
32393;SDS011;18853;45.426;9.206;2023-07-31T12:51:42;5.60;;;3.88;;
32393;SDS011;18853;45.426;9.206;2023-07-31T12:54:08;5.85;;;3.88;;
32393;SDS011;18853;45.426;9.206;2023-07-31T12:56:33;6.07;;;3.67;;
32393;SDS011;18853;45.426;9.206;2023-07-31T12:58:59;4.40;;;3.35;;
32393;SDS011;18853;45.426;9.206;2023-07-31T13:01:25;6.72;;;4.18;;
32393;SDS011;18853;45.426;9.206;2023-07-31T13:03:50;4.75;;;3.70;;
32393;SDS011;18853;45.426;9.206;2023-07-31T13:06:16;7.95;;;4.40;;
32393;SDS011;18853;45.426;9.206;2023-07-31T13:08:42;5.03;;;4.13;;
32393;SDS011;18853;45.426;9.206;2023-07-31T13:11:07;5.65;;;3.47;;
32393;SDS011;18853;45.426;9.206;2023-07-31T13:13:33;3.97;;;3.58;;
32393;SDS011;18853;45.426;9.206;2023-07-31T13:15:58;4.72;;;3.38;;
32393;SDS011;18853;45.426;9.206;2023-07-31T13:18:24;5.53;;;3.80;;
32393;SDS011;18853;45.426;9.206;2023-07-31T13:20:50;3.97;;;3.58;;
32393;SDS011;18853;45.426;9.206;2023-07-31T13:23:15;5.47;;;3.75;;
32393;SDS011;18853;45.426;9.206;2023-07-31T13:25:42;4.30;;;3.28;;
32393;SDS011;18853;45.426;9.206;2023-07-31T13:28:08;4.75;;;3.28;;
32393;SDS011;18853;45.426;9.206;2023-07-31T13:30:34;6.30;;;4.15;;
32393;SDS011;18853;45.426;9.206;2023-07-31T13:32:59;5.90;;;3.53;;
32393;SDS011;18853;45.426;9.206;2023-07-31T13:35:25;6.00;;;3.85;;
32393;SDS011;18853;45.426;9.206;2023-07-31T13:37:51;4.82;;;3.22;;
32393;SDS011;18853;45.426;9.206;2023-07-31T13:40:16;4.05;;;3.22;;
32393;SDS011;18853;45.426;9.206;2023-07-31T13:42:42;6.22;;;3.42;;
32393;SDS011;18853;45.426;9.206;2023-07-31T13:45:08;6.55;;;3.13;;
32393;SDS011;18853;45.426;9.206;2023-07-31T13:47:33;5.93;;;3.28;;
32393;SDS011;18853;45.426;9.206;2023-07-31T13:49:59;5.22;;;3.67;;
32393;SDS011;18853;45.426;9.206;2023-07-31T13:52:25;4.80;;;4.30;;
32393;SDS011;18853;45.426;9.206;2023-07-31T13:54:50;5.00;;;3.65;;
32393;SDS011;18853;45.426;9.206;2023-07-31T13:57:16;5.20;;;3.60;;
32393;SDS011;18853;45.426;9.206;2023-07-31T13:59:42;7.40;;;3.35;;
32393;SDS011;18853;45.426;9.206;2023-07-31T14:02:07;6.10;;;3.15;;
32393;SDS011;18853;45.426;9.206;2023-07-31T14:04:33;4.53;;;2.92;;
32393;SDS011;18853;45.426;9.206;2023-07-31T14:06:59;3.88;;;3.20;;
32393;SDS011;18853;45.426;9.206;2023-07-31T14:09:25;4.15;;;3.50;;
32393;SDS011;18853;45.426;9.206;2023-07-31T14:11:51;6.47;;;3.80;;
32393;SDS011;18853;45.426;9.206;2023-07-31T14:14:17;4.20;;;3.22;;
32393;SDS011;18853;45.426;9.206;2023-07-31T14:16:44;8.88;;;5.80;;
32393;SDS011;18853;45.426;9.206;2023-07-31T14:19:10;4.78;;;3.88;;
32393;SDS011;18853;45.426;9.206;2023-07-31T14:21:35;4.28;;;3.38;;
32393;SDS011;18853;45.426;9.206;2023-07-31T14:24:01;4.82;;;3.47;;
32393;SDS011;18853;45.426;9.206;2023-07-31T14:26:27;4.93;;;4.10;;
32393;SDS011;18853;45.426;9.206;2023-07-31T14:28:52;5.55;;;3.97;;
32393;SDS011;18853;45.426;9.206;2023-07-31T14:31:18;4.50;;;3.28;;
32393;SDS011;18853;45.426;9.206;2023-07-31T14:33:44;5.90;;;3.20;;
32393;SDS011;18853;45.426;9.206;2023-07-31T14:36:09;5.00;;;2.90;;
32393;SDS011;18853;45.426;9.206;2023-07-31T14:38:35;7.30;;;3.70;;
32393;SDS011;18853;45.426;9.206;2023-07-31T14:41:02;5.03;;;3.60;;
32393;SDS011;18853;45.426;9.206;2023-07-31T14:43:28;4.18;;;2.80;;
32393;SDS011;18853;45.426;9.206;2023-07-31T14:45:53;4.28;;;2.47;;
32393;SDS011;18853;45.426;9.206;2023-07-31T14:48:22;3.90;;;2.75;;
32393;SDS011;18853;45.426;9.206;2023-07-31T14:50:48;4.18;;;3.15;;
32393;SDS011;18853;45.426;9.206;2023-07-31T14:53:14;6.05;;;3.00;;
32393;SDS011;18853;45.426;9.206;2023-07-31T14:55:39;4.88;;;2.85;;
32393;SDS011;18853;45.426;9.206;2023-07-31T14:58:05;5.25;;;2.75;;
32393;SDS011;18853;45.426;9.206;2023-07-31T15:00:31;4.63;;;2.65;;